createdAt,value
2019-03-20T00:02:15.277Z,38.60
2019-03-20T00:04:50.055Z,36.20
2019-03-20T00:07:20.890Z,37.00
2019-03-20T00:09:52.651Z,40.00
2019-03-20T00:12:24.390Z,40.20
2019-03-20T00:14:56.193Z,39.00
2019-03-20T00:17:27.916Z,40.60
2019-03-20T00:19:59.938Z,39.00
2019-03-20T00:22:31.736Z,36.20
2019-03-20T00:25:03.564Z,38.60
2019-03-20T00:27:35.049Z,36.80
2019-03-20T00:30:07.276Z,38.60
2019-03-20T00:32:38.926Z,39.00
2019-03-20T00:35:10.839Z,39.80
2019-03-20T00:37:42.823Z,48.00
2019-03-20T00:40:15.599Z,45.80
2019-03-20T00:42:47.728Z,42.60
2019-03-20T00:45:19.579Z,41.40
2019-03-20T00:47:51.355Z,39.40
2019-03-20T00:50:23.960Z,39.20
2019-03-20T00:52:55.887Z,39.20
2019-03-20T00:55:27.412Z,41.60
2019-03-20T00:57:59.545Z,45.20
2019-03-20T01:00:31.807Z,38.60
2019-03-20T01:03:03.626Z,41.60
2019-03-20T01:05:35.159Z,42.20
2019-03-20T01:08:07.013Z,42.80
2019-03-20T01:10:38.776Z,47.60
2019-03-20T01:13:10.714Z,41.80
2019-03-20T01:15:42.923Z,42.40
2019-03-20T01:18:14.686Z,43.40
2019-03-20T01:20:46.274Z,48.00
2019-03-20T01:23:17.724Z,45.00
2019-03-20T01:25:49.499Z,49.20
2019-03-20T01:28:20.984Z,46.80
2019-03-20T01:30:52.875Z,51.80
2019-03-20T01:33:24.489Z,56.40
2019-03-20T01:35:56.256Z,66.40
2019-03-20T01:38:27.855Z,71.00
2019-03-20T01:40:59.249Z,64.40
2019-03-20T01:43:30.715Z,57.20
2019-03-20T01:46:02.591Z,63.60
2019-03-20T01:48:34.151Z,63.40
2019-03-20T01:51:30.770Z,58.20
2019-03-20T01:54:02.930Z,63.80
2019-03-20T01:56:34.769Z,56.00
2019-03-20T01:59:06.411Z,60.00
2019-03-20T02:01:37.949Z,62.00
2019-03-20T02:04:09.497Z,60.40
2019-03-20T02:06:41.115Z,63.40
2019-03-20T02:09:13.126Z,64.00
2019-03-20T02:11:44.983Z,65.40
2019-03-20T02:14:17.081Z,63.40
2019-03-20T02:16:49.214Z,55.40
2019-03-20T02:19:20.934Z,62.60
2019-03-20T02:21:52.357Z,62.40
2019-03-20T02:24:24.073Z,61.60
2019-03-20T02:26:56.402Z,67.00
2019-03-20T02:29:27.925Z,62.60
2019-03-20T02:32:00.744Z,63.80
2019-03-20T02:34:32.607Z,58.00
2019-03-20T02:37:04.527Z,59.40
2019-03-20T02:39:36.254Z,64.20
2019-03-20T02:42:08.054Z,68.00
2019-03-20T02:44:39.801Z,61.60
2019-03-20T02:47:11.858Z,60.60
2019-03-20T02:49:43.355Z,60.60
2019-03-20T02:52:14.973Z,65.20
2019-03-20T02:54:46.655Z,63.20
2019-03-20T02:57:18.740Z,56.40
2019-03-20T02:59:50.096Z,62.80
2019-03-20T03:02:21.824Z,55.40
2019-03-20T03:04:53.592Z,57.60
2019-03-20T03:07:25.370Z,61.80
2019-03-20T03:09:57.094Z,62.40
2019-03-20T03:12:28.572Z,60.00
2019-03-20T03:15:00.510Z,65.00
2019-03-20T03:17:32.746Z,64.20
2019-03-20T03:20:04.361Z,68.00
2019-03-20T03:22:36.422Z,66.20
2019-03-20T03:25:08.705Z,67.20
2019-03-20T03:27:40.216Z,69.20
2019-03-20T03:30:12.257Z,72.40
2019-03-20T03:32:55.229Z,77.40
2019-03-20T03:35:27.541Z,75.40
2019-03-20T03:37:59.383Z,75.80
2019-03-20T03:40:31.303Z,75.00
2019-03-20T03:43:03.117Z,80.00
2019-03-20T03:45:34.849Z,78.40
2019-03-20T03:48:06.620Z,73.40
2019-03-20T03:50:38.610Z,74.80
2019-03-20T03:53:10.431Z,74.60
2019-03-20T03:55:41.947Z,70.60
2019-03-20T03:58:13.590Z,73.60
2019-03-20T04:00:45.418Z,68.40
2019-03-20T04:03:17.113Z,72.40
2019-03-20T04:05:48.944Z,65.40
2019-03-20T04:08:20.784Z,59.20
2019-03-20T04:10:52.406Z,43.40
2019-03-20T04:13:24.554Z,40.00
2019-03-20T04:15:57.284Z,37.20
2019-03-20T04:18:29.455Z,39.00
2019-03-20T04:21:01.179Z,37.00
2019-03-20T04:23:32.727Z,35.80
2019-03-20T04:26:04.559Z,36.00
2019-03-20T04:28:38.314Z,36.20
2019-03-20T04:31:10.200Z,37.00
2019-03-20T04:33:41.901Z,38.00
2019-03-20T04:36:13.884Z,36.60
2019-03-20T04:38:45.733Z,38.00
2019-03-20T04:41:17.389Z,36.00
2019-03-20T04:43:49.306Z,41.20
2019-03-20T04:46:21.228Z,42.00
2019-03-20T04:48:52.760Z,38.00
2019-03-20T04:51:24.622Z,38.40
2019-03-20T04:53:56.157Z,37.40
2019-03-20T04:56:28.067Z,35.40
2019-03-20T04:58:59.892Z,32.80
2019-03-20T05:01:31.668Z,33.80
2019-03-20T05:04:03.460Z,36.20
2019-03-20T05:06:35.467Z,33.00
2019-03-20T05:09:08.026Z,34.80
2019-03-20T05:11:39.891Z,35.40
2019-03-20T05:14:12.505Z,35.20
2019-03-20T05:16:44.145Z,36.00
2019-03-20T05:19:15.783Z,34.80
2019-03-20T05:21:48.102Z,38.00
2019-03-20T05:24:20.009Z,36.20
2019-03-20T05:26:52.816Z,35.80
2019-03-20T05:29:24.463Z,35.40
2019-03-20T05:31:55.785Z,35.60
2019-03-20T05:34:27.766Z,34.40
2019-03-20T05:37:09.593Z,36.80
2019-03-20T05:39:32.445Z,36.00
2019-03-20T05:42:04.250Z,36.00
2019-03-20T05:44:36.013Z,36.00
2019-03-20T05:47:07.722Z,36.00
2019-03-20T05:49:39.229Z,35.20
2019-03-20T05:52:10.917Z,34.20
2019-03-20T05:54:42.678Z,34.20
2019-03-20T05:57:14.457Z,36.40
2019-03-20T05:59:46.164Z,37.00
2019-03-20T06:02:17.643Z,35.00
2019-03-20T06:04:49.262Z,33.20
2019-03-20T06:07:21.768Z,35.00
2019-03-20T06:09:53.582Z,35.20
2019-03-20T06:12:25.172Z,33.40
2019-03-20T06:14:57.045Z,32.40
2019-03-20T06:17:28.676Z,31.20
2019-03-20T06:20:00.418Z,34.20
2019-03-20T06:22:32.168Z,31.80
2019-03-20T06:25:05.345Z,31.00
2019-03-20T06:27:36.748Z,32.20
2019-03-20T06:30:09.781Z,30.20
2019-03-20T06:32:49.378Z,30.60
2019-03-20T06:35:28.081Z,31.00
2019-03-20T06:38:01.400Z,31.40
2019-03-20T06:40:36.845Z,29.20
2019-03-20T06:43:11.611Z,30.00
2019-03-20T06:45:43.474Z,30.60
2019-03-20T06:48:15.503Z,29.20
2019-03-20T06:50:47.065Z,24.60
2019-03-20T06:53:19.623Z,28.40
2019-03-20T06:55:51.059Z,28.40
2019-03-20T06:58:22.927Z,26.00
2019-03-20T07:01:05.973Z,25.20
2019-03-20T07:03:57.534Z,23.60
2019-03-20T07:07:05.045Z,26.00
2019-03-20T07:10:29.176Z,23.00
2019-03-20T07:13:01.026Z,23.00
2019-03-20T07:15:32.578Z,20.60
2019-03-20T07:18:04.215Z,18.40
2019-03-20T07:20:36.079Z,19.80
2019-03-20T07:23:07.605Z,22.00
2019-03-20T07:25:39.373Z,19.80
2019-03-20T07:28:11.029Z,21.60
2019-03-20T07:30:42.849Z,22.60
2019-03-20T07:33:14.802Z,20.80
2019-03-20T07:35:46.957Z,20.80
2019-03-20T07:38:19.201Z,21.40
2019-03-20T07:40:51.114Z,20.00
2019-03-20T07:43:22.852Z,20.00
2019-03-20T07:45:55.962Z,15.40
2019-03-20T07:48:31.595Z,19.80
2019-03-20T07:51:03.295Z,19.00
2019-03-20T07:53:35.037Z,18.60
2019-03-20T07:56:06.695Z,17.20
2019-03-20T07:58:38.345Z,19.60
2019-03-20T08:01:09.993Z,17.60
2019-03-20T08:03:41.633Z,18.80
2019-03-20T08:06:14.264Z,20.00
2019-03-20T08:08:46.935Z,15.80
2019-03-20T08:11:18.351Z,19.20
2019-03-20T08:13:50.006Z,20.40
2019-03-20T08:16:21.254Z,18.20
2019-03-20T08:18:52.698Z,18.60
2019-03-20T08:21:24.113Z,15.40
2019-03-20T08:23:57.434Z,15.80
2019-03-20T08:26:29.459Z,17.60
2019-03-20T08:29:03.882Z,17.00
2019-03-20T08:31:36.038Z,17.60
2019-03-20T08:34:07.939Z,17.00
2019-03-20T08:36:39.716Z,18.00
2019-03-20T08:39:11.725Z,19.00
2019-03-20T08:41:43.560Z,17.60
2019-03-20T08:44:17.234Z,17.60
2019-03-20T08:46:52.581Z,17.00
2019-03-20T08:49:27.627Z,16.00
2019-03-20T08:51:59.518Z,17.00
2019-03-20T08:54:31.329Z,17.80
2019-03-20T08:57:02.934Z,16.40
2019-03-20T08:59:34.543Z,16.20
2019-03-20T09:02:06.179Z,17.00
2019-03-20T09:04:39.157Z,17.40
2019-03-20T09:07:10.889Z,16.00
2019-03-20T09:09:43.589Z,16.80
2019-03-20T09:12:14.854Z,14.80
2019-03-20T09:14:46.565Z,17.80
2019-03-20T09:17:18.439Z,16.40
2019-03-20T09:19:49.963Z,17.00
2019-03-20T09:22:21.746Z,15.40
2019-03-20T09:24:53.166Z,17.20
2019-03-20T09:27:25.949Z,16.80
2019-03-20T09:29:57.952Z,14.80
2019-03-20T09:32:30.669Z,16.00
2019-03-20T09:35:02.132Z,14.00
2019-03-20T09:37:34.225Z,17.40
2019-03-20T09:40:06.783Z,16.60
2019-03-20T09:42:38.468Z,17.00
2019-03-20T09:45:12.079Z,17.00
2019-03-20T09:47:45.969Z,15.00
2019-03-20T09:50:19.570Z,12.40
2019-03-20T09:52:52.566Z,14.40
2019-03-20T09:55:24.351Z,15.60
2019-03-20T09:57:56.115Z,17.20
2019-03-20T10:00:29.905Z,14.60
2019-03-20T10:03:02.706Z,11.80
2019-03-20T10:05:35.806Z,9.40
2019-03-20T10:08:08.440Z,13.00
2019-03-20T10:10:40.029Z,12.40
2019-03-20T10:13:11.759Z,12.40
2019-03-20T10:15:43.459Z,12.20
2019-03-20T10:18:15.178Z,15.00
2019-03-20T10:20:46.663Z,13.80
2019-03-20T10:23:18.392Z,12.60
2019-03-20T10:25:51.233Z,13.20
2019-03-20T10:28:23.046Z,11.20
2019-03-20T10:30:54.752Z,13.40
2019-03-20T10:33:26.478Z,12.00
2019-03-20T10:35:58.077Z,13.20
2019-03-20T10:38:30.325Z,13.20
2019-03-20T10:41:02.639Z,14.80
2019-03-20T10:43:35.435Z,14.20
2019-03-20T10:46:07.188Z,13.40
2019-03-20T10:48:38.800Z,13.40
2019-03-20T10:51:10.255Z,12.00
2019-03-20T10:53:42.113Z,11.40
2019-03-20T10:56:13.787Z,16.00
2019-03-20T10:58:45.937Z,15.40
2019-03-20T11:01:17.685Z,12.00
2019-03-20T11:03:49.488Z,13.80
2019-03-20T11:06:21.257Z,13.40
2019-03-20T11:08:53.153Z,15.00
2019-03-20T11:11:27.261Z,15.20
2019-03-20T11:13:58.216Z,12.80
2019-03-20T11:16:29.816Z,15.20
2019-03-20T11:19:01.646Z,16.40
2019-03-20T11:21:33.283Z,18.80
2019-03-20T11:24:05.190Z,15.00
2019-03-20T11:26:36.942Z,13.80
2019-03-20T11:29:08.666Z,14.20
2019-03-20T11:31:43.923Z,14.20
2019-03-20T11:34:15.676Z,17.20
2019-03-20T11:36:47.316Z,15.40
2019-03-20T11:39:29.928Z,17.20
2019-03-20T11:41:59.539Z,16.00
2019-03-20T11:44:31.172Z,13.20
2019-03-20T11:47:02.921Z,13.40
2019-03-20T11:49:34.593Z,10.60
2019-03-20T11:52:07.251Z,16.20
2019-03-20T11:54:38.819Z,14.40
2019-03-20T11:57:10.431Z,12.00
2019-03-20T11:59:42.243Z,10.20
2019-03-20T12:02:13.951Z,12.60
2019-03-20T12:04:45.772Z,8.20
2019-03-20T12:07:17.224Z,13.80
2019-03-20T12:09:48.707Z,15.40
2019-03-20T12:12:27.331Z,25.20
2019-03-20T12:15:03.466Z,22.00
2019-03-20T12:17:35.473Z,23.20
2019-03-20T12:20:13.174Z,20.60
2019-03-20T12:22:45.615Z,21.00
2019-03-20T12:25:19.840Z,21.20
2019-03-20T12:27:51.660Z,17.40
2019-03-20T12:30:24.850Z,17.40
2019-03-20T12:32:56.687Z,20.00
2019-03-20T12:35:29.811Z,20.00
2019-03-20T12:38:13.155Z,22.00
2019-03-20T12:40:34.756Z,22.40
2019-03-20T12:43:07.456Z,21.80
2019-03-20T12:45:39.301Z,21.00
2019-03-20T12:48:10.976Z,20.80
2019-03-20T12:50:46.247Z,23.00
2019-03-20T12:53:18.037Z,23.20
2019-03-20T12:55:49.517Z,22.00
2019-03-20T12:58:21.338Z,22.00
2019-03-20T13:00:54.556Z,22.00
2019-03-20T13:03:26.118Z,22.00
2019-03-20T13:05:57.984Z,21.60
2019-03-20T13:08:29.617Z,22.00
2019-03-20T13:11:01.226Z,23.60
2019-03-20T13:13:32.624Z,25.00
2019-03-20T13:16:04.476Z,26.00
2019-03-20T13:18:36.395Z,27.20
2019-03-20T13:21:08.098Z,29.60
2019-03-20T13:23:39.744Z,27.80
2019-03-20T13:26:11.132Z,29.20
2019-03-20T13:28:42.718Z,29.60
2019-03-20T13:31:17.699Z,31.00
2019-03-20T13:33:49.402Z,30.60
2019-03-20T13:36:21.160Z,31.20
2019-03-20T13:38:52.784Z,29.20
2019-03-20T13:41:24.484Z,29.60
2019-03-20T13:43:56.304Z,31.20
2019-03-20T13:46:28.705Z,29.00
2019-03-20T13:49:00.318Z,29.60
2019-03-20T13:51:31.792Z,30.20
2019-03-20T13:54:03.204Z,30.20
2019-03-20T13:56:35.060Z,28.20
2019-03-20T13:59:06.582Z,28.60
2019-03-20T14:01:38.342Z,30.80
2019-03-20T14:04:10.349Z,29.40
2019-03-20T14:06:42.408Z,29.80
2019-03-20T14:09:14.010Z,28.80
2019-03-20T14:11:45.647Z,30.00
2019-03-20T14:14:17.335Z,28.00
2019-03-20T14:16:49.211Z,28.60
2019-03-20T14:19:22.770Z,30.40
2019-03-20T14:21:54.298Z,29.00
2019-03-20T14:24:26.633Z,29.20
2019-03-20T14:26:58.163Z,31.00
2019-03-20T14:29:29.698Z,28.60
2019-03-20T14:32:01.320Z,32.40
2019-03-20T14:34:32.853Z,31.20
2019-03-20T14:37:07.416Z,30.60
2019-03-20T14:39:39.098Z,28.00
2019-03-20T14:42:10.563Z,30.00
2019-03-20T14:44:42.100Z,35.20
2019-03-20T14:47:13.992Z,35.00
2019-03-20T14:49:45.412Z,33.80
2019-03-20T14:52:16.992Z,32.80
2019-03-20T14:54:48.551Z,34.60
2019-03-20T14:57:20.355Z,35.80
2019-03-20T14:59:51.970Z,36.00
2019-03-20T15:02:23.812Z,37.60
2019-03-20T15:04:55.545Z,34.60
2019-03-20T15:07:26.940Z,34.20
2019-03-20T15:09:58.454Z,33.40
2019-03-20T15:12:30.035Z,33.60
2019-03-20T15:15:02.023Z,35.20
2019-03-20T15:17:35.139Z,35.20
2019-03-20T15:20:07.047Z,34.00
2019-03-20T15:22:38.716Z,36.20
2019-03-20T15:25:10.655Z,39.40
2019-03-20T15:27:42.017Z,37.60
2019-03-20T15:30:15.308Z,40.60
2019-03-20T15:32:47.017Z,38.40
2019-03-20T15:35:18.567Z,36.60
2019-03-20T15:37:50.184Z,39.00
2019-03-20T15:40:22.309Z,39.00
2019-03-20T15:42:53.834Z,38.80
2019-03-20T15:45:26.056Z,41.20
2019-03-20T15:47:57.722Z,38.00
2019-03-20T15:50:29.607Z,45.20
2019-03-20T15:53:01.283Z,40.40
2019-03-20T15:55:33.368Z,42.80
2019-03-20T15:58:05.225Z,40.40
2019-03-20T16:00:36.909Z,42.60
2019-03-20T16:03:11.256Z,47.40
2019-03-20T16:05:43.080Z,50.00
2019-03-20T16:08:15.824Z,44.60
2019-03-20T16:10:47.767Z,50.20
2019-03-20T16:13:19.377Z,55.60
2019-03-20T16:15:51.013Z,68.20
2019-03-20T16:18:22.886Z,63.60
2019-03-20T16:20:54.533Z,66.60
2019-03-20T16:23:26.223Z,73.00
2019-03-20T16:25:57.952Z,70.00
2019-03-20T16:28:29.512Z,63.80
2019-03-20T16:31:01.186Z,72.00
2019-03-20T16:33:33.145Z,71.20
2019-03-20T16:36:04.723Z,65.20
2019-03-20T16:38:36.532Z,72.20
2019-03-20T16:41:16.431Z,66.00
2019-03-20T16:43:42.777Z,70.80
2019-03-20T16:46:14.863Z,86.80
2019-03-20T16:48:46.330Z,133.50
2019-03-20T16:51:17.845Z,165.40
2019-03-20T16:53:49.352Z,121.00
2019-03-20T16:56:20.832Z,87.40
2019-03-20T16:58:52.738Z,84.20
2019-03-20T17:01:24.485Z,83.20
2019-03-20T17:03:56.284Z,67.80
2019-03-20T17:06:27.748Z,63.80
2019-03-20T17:08:59.053Z,72.40
2019-03-20T17:11:38.365Z,67.40
2019-03-20T17:14:03.789Z,67.80
2019-03-20T17:16:35.609Z,70.20
2019-03-20T17:19:07.157Z,68.80
2019-03-20T17:21:38.766Z,66.80
2019-03-20T17:24:10.661Z,68.40
2019-03-20T17:26:42.183Z,69.00
2019-03-20T17:29:13.788Z,76.00
2019-03-20T17:31:46.712Z,77.00
2019-03-20T17:34:18.552Z,86.20
2019-03-20T17:36:50.440Z,86.80
2019-03-20T17:39:22.228Z,84.80
2019-03-20T17:41:53.894Z,78.20
2019-03-20T17:44:25.624Z,79.40
2019-03-20T17:46:57.746Z,78.60
2019-03-20T17:49:29.563Z,75.80
2019-03-20T17:52:01.277Z,78.00
2019-03-20T17:54:33.287Z,80.00
2019-03-20T17:57:05.396Z,76.00
2019-03-20T17:59:37.632Z,80.00
2019-03-20T18:02:10.248Z,75.00
2019-03-20T18:04:42.087Z,72.40
2019-03-20T18:07:13.633Z,72.20
2019-03-20T18:09:45.308Z,75.40
2019-03-20T18:12:17.296Z,66.80
2019-03-20T18:14:49.078Z,64.00
2019-03-20T18:17:20.725Z,66.40
2019-03-20T18:19:52.769Z,66.80
2019-03-20T18:22:24.548Z,63.80
2019-03-20T18:24:56.216Z,64.40
2019-03-20T18:27:27.520Z,65.00
2019-03-20T18:29:59.523Z,71.80
2019-03-20T18:32:34.703Z,75.80
2019-03-20T18:35:07.037Z,80.20
2019-03-20T18:37:38.682Z,76.60
2019-03-20T18:40:11.629Z,72.00
2019-03-20T18:42:43.143Z,77.60
2019-03-20T18:45:15.610Z,73.00
2019-03-20T18:47:47.244Z,67.00
2019-03-20T18:50:20.503Z,69.20
2019-03-20T18:52:56.422Z,64.20
2019-03-20T18:55:27.895Z,65.20
2019-03-20T18:57:59.727Z,61.60
2019-03-20T19:00:31.501Z,60.40
2019-03-20T19:03:03.384Z,59.80
2019-03-20T19:05:47.761Z,55.20
2019-03-20T19:08:21.559Z,55.20
2019-03-20T19:10:52.872Z,57.20
2019-03-20T19:13:24.647Z,58.20
2019-03-20T19:15:56.171Z,60.00
2019-03-20T19:18:27.898Z,56.20
2019-03-20T19:20:59.470Z,57.00
2019-03-20T19:23:31.873Z,55.40
2019-03-20T19:26:03.477Z,52.40
2019-03-20T19:28:35.174Z,55.20
2019-03-20T19:31:07.109Z,54.20
2019-03-20T19:33:39.007Z,50.20
2019-03-20T19:36:10.696Z,53.60
2019-03-20T19:38:42.426Z,56.00
2019-03-20T19:41:14.145Z,50.00
2019-03-20T19:43:45.796Z,50.60
2019-03-20T19:46:17.372Z,48.00
2019-03-20T19:48:49.187Z,48.40
2019-03-20T19:51:20.565Z,48.40
2019-03-20T19:53:52.137Z,47.40
2019-03-20T19:56:23.826Z,48.80
2019-03-20T19:58:55.352Z,49.20
2019-03-20T20:01:26.895Z,50.80
2019-03-20T20:03:58.624Z,49.60
2019-03-20T20:06:30.449Z,51.00
2019-03-20T20:09:54.948Z,51.80
2019-03-20T22:24:33.795Z,32.00
